Time;durP1;ratioP1;P1;durP2;ratioP2;P2;SDS_P1;SDS_P2;PMS_P1;PMS_P2;Temp;Humidity;BMP_temperature;BMP_pressure;BME280_temperature;BME280_humidity;BME280_pressure;Samples;Min_cycle;Max_cycle;Signal;HPM_P1;HPM_P2
2023/04/03 00:00:50;;;;;;;18.73;4.93;;;;;;;-144.73;90.57;54479.53;6215060;23;20016;-71
2023/04/03 00:03:16;;;;;;;20.33;4.10;;;;;;;-144.73;91.09;54452.84;6222428;23;20477;-71
2023/04/03 00:05:41;;;;;;;23.03;4.47;;;;;;;-144.73;91.15;54459.00;6213893;23;20419;-72
2023/04/03 00:08:09;;;;;;;17.47;5.20;;;;;;;-144.73;92.04;54481.59;6221989;23;20055;-71
2023/04/03 00:10:35;;;;;;;17.77;5.07;;;;;;;-144.73;91.65;54473.38;6214415;23;20044;-71
2023/04/03 00:13:02;;;;;;;11.13;3.90;;;;;;;-144.73;91.75;54502.13;6222790;23;20003;-72
2023/04/03 00:15:27;;;;;;;17.97;4.40;;;;;;;-144.73;92.00;54483.66;6215134;23;20069;-71
2023/04/03 00:17:53;;;;;;;16.00;4.30;;;;;;;-144.73;91.57;54473.38;6222393;23;20387;-71
2023/04/03 00:20:18;;;;;;;14.53;4.20;;;;;;;-144.73;91.84;54481.59;6215597;23;20013;-72
2023/04/03 00:22:43;;;;;;;15.37;4.30;;;;;;;-144.73;92.28;54473.38;6196487;23;20066;-72
2023/04/03 00:25:09;;;;;;;18.07;4.60;;;;;;;-144.73;92.26;54448.75;6217769;23;20020;-72
2023/04/03 00:27:36;;;;;;;11.67;4.53;;;;;;;-144.73;92.23;54456.97;6195950;23;20012;-70
2023/04/03 00:30:03;;;;;;;20.13;3.83;;;;;;;-144.73;92.66;54481.59;6216921;23;20016;-70
2023/04/03 00:32:28;;;;;;;19.63;4.00;;;;;;;-144.73;92.04;54485.69;6196615;23;20009;-70
2023/04/03 00:34:53;;;;;;;21.13;4.27;;;;;;;-144.73;91.55;54493.91;6192255;23;20031;-70
2023/04/03 00:37:19;;;;;;;17.80;3.87;;;;;;;-144.73;92.18;54444.66;6222341;23;20004;-71
2023/04/03 00:39:45;;;;;;;15.97;3.63;;;;;;;-144.73;91.79;54477.47;6192945;23;20077;-70
2023/04/03 00:42:10;;;;;;;15.73;3.33;;;;;;;-144.73;92.00;54493.91;6220718;23;20008;-70
2023/04/03 00:44:36;;;;;;;12.83;3.50;;;;;;;-144.73;91.83;54493.91;6193244;23;20036;-70
2023/04/03 00:47:05;;;;;;;15.67;3.30;;;;;;;-144.73;91.48;54477.47;6195862;23;20071;-71
2023/04/03 00:49:30;;;;;;;21.47;4.23;;;;;;;-144.73;91.33;54481.59;6192843;23;20012;-71
2023/04/03 00:51:57;;;;;;;18.17;5.50;;;;;;;-144.73;91.31;54512.38;6222382;23;20007;-71
2023/04/03 00:54:23;;;;;;;16.83;4.27;;;;;;;-144.73;91.26;54485.69;6193516;23;20091;-71
2023/04/03 00:56:51;;;;;;;15.77;4.00;;;;;;;-144.73;91.23;54514.44;6220857;23;20010;-71
2023/04/03 00:59:26;;;;;;;18.27;3.50;;;;;;;-144.73;91.85;54465.16;6218926;23;20363;-72
2023/04/03 01:01:55;;;;;;;18.53;4.57;;;;;;;-144.73;91.64;54463.13;6222160;23;19992;-72
2023/04/03 01:04:28;;;;;;;16.77;4.17;;;;;;;-144.73;91.69;54493.91;6219551;23;20000;-70
2023/04/03 01:06:56;;;;;;;16.43;4.13;;;;;;;-144.73;91.95;54502.13;6221032;23;20068;-71
2023/04/03 01:09:21;;;;;;;22.33;4.83;;;;;;;-144.73;92.05;54461.06;6218486;23;20083;-71
2023/04/03 01:11:47;;;;;;;14.77;4.30;;;;;;;-144.73;92.91;54444.66;6195937;23;20028;-71
2023/04/03 01:14:12;;;;;;;18.50;4.40;;;;;;;-144.73;93.06;54489.81;6194446;23;20446;-71
2023/04/03 01:16:38;;;;;;;18.50;4.50;;;;;;;-144.73;93.52;54452.84;6195338;23;19996;-71
2023/04/03 01:19:08;;;;;;;15.93;4.67;;;;;;;-144.73;93.59;54461.06;6221641;23;20000;-70
2023/04/03 01:21:42;;;;;;;20.30;4.67;;;;;;;-144.73;93.63;54481.59;6184988;23;20010;-71
2023/04/03 01:24:31;;;;;;;21.83;4.47;;;;;;;-144.73;94.00;54506.22;6220025;23;20076;-71
2023/04/03 01:26:57;;;;;;;31.43;5.03;;;;;;;-144.73;93.79;54463.13;6220418;23;20047;-71
2023/04/03 01:29:22;;;;;;;19.17;4.10;;;;;;;-144.73;93.99;54485.69;6219310;23;20000;-71
2023/04/03 01:31:57;;;;;;;16.03;4.10;;;;;;;-144.73;93.88;54502.13;6195287;23;20005;-71
2023/04/03 01:34:23;;;;;;;16.30;3.40;;;;;;;-144.73;93.60;54508.28;6218638;23;20008;-71
2023/04/03 01:36:50;;;;;;;15.20;4.60;;;;;;;-144.73;93.77;54510.31;6195468;23;20005;-71
2023/04/03 01:39:16;;;;;;;18.07;5.87;;;;;;;-144.73;93.55;54498.00;6218895;23;20008;-71
2023/04/03 01:41:42;;;;;;;20.27;4.60;;;;;;;-144.73;93.95;54477.47;6220669;23;20008;-71
2023/04/03 01:44:07;;;;;;;19.00;4.67;;;;;;;-144.73;93.57;54477.47;6195020;23;20054;-71
2023/04/03 01:46:32;;;;;;;19.43;4.47;;;;;;;-144.73;94.05;54524.69;6220581;23;20091;-71
2023/04/03 01:48:58;;;;;;;20.77;4.97;;;;;;;-144.73;93.73;54477.47;6195747;23;20026;-71
2023/04/03 01:51:23;;;;;;;19.70;4.37;;;;;;;-144.73;93.55;54493.91;6212289;23;20035;-71
2023/04/03 01:53:48;;;;;;;16.83;4.03;;;;;;;-144.73;93.52;54498.00;6195781;23;20142;-71
2023/04/03 01:56:14;;;;;;;20.70;4.87;;;;;;;-144.73;94.20;54514.44;6212187;23;20017;-72
2023/04/03 01:58:39;;;;;;;13.90;4.30;;;;;;;-144.73;95.22;54518.53;6197120;23;20008;-72
2023/04/03 02:01:05;;;;;;;14.03;4.20;;;;;;;-144.73;95.14;54481.59;6214908;23;20032;-70
2023/04/03 02:03:30;;;;;;;20.33;4.30;;;;;;;-144.73;95.07;54493.91;6197495;23;20000;-70
2023/04/03 02:05:56;;;;;;;17.07;4.30;;;;;;;-144.73;94.66;54502.13;6188867;23;20013;-70
2023/04/03 02:08:22;;;;;;;17.83;4.23;;;;;;;-144.73;94.86;54522.63;6196514;23;20001;-71
2023/04/03 02:10:48;;;;;;;17.17;4.37;;;;;;;-144.73;94.34;54498.00;6214413;23;20013;-71
2023/04/03 02:13:14;;;;;;;20.80;4.37;;;;;;;-144.73;94.22;54491.84;6221872;23;20012;-70
2023/04/03 02:15:39;;;;;;;16.40;3.73;;;;;;;-144.73;93.95;54477.47;6190386;23;20021;-71
2023/04/03 02:18:06;;;;;;;16.50;4.07;;;;;;;-144.73;94.32;54506.22;6196638;23;20001;-71
2023/04/03 02:20:31;;;;;;;18.20;4.67;;;;;;;-144.73;94.37;54512.38;6216902;23;20024;-71
2023/04/03 02:22:58;;;;;;;23.47;4.37;;;;;;;-144.73;94.74;54469.28;6223452;23;20058;-71
2023/04/03 02:25:23;;;;;;;15.70;4.60;;;;;;;-144.73;94.76;54481.59;6190542;23;20024;-71
2023/04/03 02:27:49;;;;;;;24.27;4.20;;;;;;;-144.73;94.41;54493.91;6197035;23;20005;-72
2023/04/03 02:30:15;;;;;;;24.23;4.80;;;;;;;-144.73;94.43;54473.38;6191998;23;20334;-72
2023/04/03 02:32:42;;;;;;;20.93;5.17;;;;;;;-144.73;94.86;54465.16;6224104;23;20016;-71
2023/04/03 02:35:08;;;;;;;14.83;4.60;;;;;;;-144.73;94.92;54477.47;6217770;23;20055;-71
2023/04/03 02:37:33;;;;;;;17.53;5.40;;;;;;;-144.73;95.17;54448.75;6219149;23;20173;-71
2023/04/03 02:39:59;;;;;;;20.47;5.33;;;;;;;-144.73;95.14;54452.84;6218995;23;20070;-71
2023/04/03 02:42:24;;;;;;;20.23;5.77;;;;;;;-144.73;95.67;54452.84;6222176;23;20000;-71
2023/04/03 02:44:49;;;;;;;23.47;5.30;;;;;;;-144.73;95.97;54489.81;6193135;23;20015;-71
2023/04/03 02:47:15;;;;;;;19.77;5.50;;;;;;;-144.73;96.02;54502.13;6220888;23;20005;-71
2023/04/03 02:49:41;;;;;;;14.10;5.67;;;;;;;-144.73;95.58;54518.53;6218761;23;20019;-71
2023/04/03 02:52:06;;;;;;;22.53;5.70;;;;;;;-144.73;95.69;54514.44;6222097;23;20014;-72
2023/04/03 02:54:32;;;;;;;26.50;7.67;;;;;;;-144.73;95.52;54491.84;6220258;23;20020;-71
2023/04/03 02:56:57;;;;;;;24.47;5.53;;;;;;;-144.73;95.26;54485.69;6196984;23;20012;-71
2023/04/03 02:59:23;;;;;;;21.53;5.73;;;;;;;-144.73;95.05;54489.81;6194361;23;20032;-71
2023/04/03 03:01:48;;;;;;;19.10;5.27;;;;;;;-144.73;94.84;54502.13;6196981;23;20028;-72
2023/04/03 03:04:13;;;;;;;20.87;5.87;;;;;;;-144.73;94.74;54493.91;6195390;23;20019;-72
2023/04/03 03:06:39;;;;;;;20.53;5.20;;;;;;;-144.73;94.97;54493.91;6197160;23;20024;-71
2023/04/03 03:09:05;;;;;;;21.60;5.43;;;;;;;-144.73;95.23;54461.06;6220968;23;20004;-72
2023/04/03 03:11:31;;;;;;;20.00;5.63;;;;;;;-144.73;94.87;54514.44;6186283;23;20012;-71
2023/04/03 03:13:56;;;;;;;10.47;4.27;;;;;;;-144.73;94.53;54518.53;6197611;23;20032;-72
2023/04/03 03:16:22;;;;;;;14.10;4.50;;;;;;;-144.73;94.46;54489.81;6186519;23;20070;-71
2023/04/03 03:18:47;;;;;;;15.07;5.17;;;;;;;-144.73;94.93;54448.75;6196272;23;20008;-71
2023/04/03 03:21:13;;;;;;;18.33;5.10;;;;;;;-144.73;94.85;54485.69;6212484;23;20012;-70
2023/04/03 03:23:38;;;;;;;17.50;5.53;;;;;;;-144.73;94.20;54481.59;6223416;23;20004;-70
2023/04/03 03:26:06;;;;;;;19.87;5.20;;;;;;;-144.73;94.30;54487.75;6188154;23;20461;-70
2023/04/03 03:28:32;;;;;;;16.53;4.97;;;;;;;-144.73;94.55;54463.13;6222921;23;20032;-71
2023/04/03 03:30:58;;;;;;;16.17;5.13;;;;;;;-144.73;95.50;54452.84;6213367;23;20423;-72
2023/04/03 03:33:25;;;;;;;17.43;5.87;;;;;;;-144.73;95.19;54493.91;6196829;23;20000;-71
2023/04/03 03:35:51;;;;;;;18.03;4.87;;;;;;;-144.73;95.11;54502.13;6213746;23;20012;-72
2023/04/03 03:38:16;;;;;;;24.10;6.63;;;;;;;-144.73;94.84;54469.28;6195527;23;20396;-72
2023/04/03 03:40:42;;;;;;;20.23;5.93;;;;;;;-144.73;94.66;54481.59;6214263;23;20024;-72
2023/04/03 03:43:07;;;;;;;17.23;4.70;;;;;;;-144.73;94.91;54469.28;6222828;23;20008;-72
2023/04/03 03:45:32;;;;;;;21.87;5.27;;;;;;;-144.73;95.18;54456.97;6189332;23;20480;-71
2023/04/03 03:47:58;;;;;;;19.10;5.50;;;;;;;-144.73;95.21;54473.38;6196584;23;20070;-72
2023/04/03 03:50:23;;;;;;;18.47;5.10;;;;;;;-144.73;95.14;54485.69;6190817;23;20021;-72
2023/04/03 03:52:48;;;;;;;14.80;4.33;;;;;;;-144.73;94.73;54485.69;6196233;23;20000;-71
2023/04/03 03:55:14;;;;;;;18.33;5.07;;;;;;;-144.73;94.82;54465.16;6191148;23;20019;-71
2023/04/03 03:57:39;;;;;;;15.33;4.77;;;;;;;-144.73;94.62;54459.00;6222296;23;20055;-71
2023/04/03 04:00:07;;;;;;;15.43;4.63;;;;;;;-144.73;94.73;54547.28;6191379;23;20013;-71
2023/04/03 04:02:32;;;;;;;12.67;4.53;;;;;;;-144.73;94.54;54495.97;6222628;23;20000;-71
2023/04/03 04:04:58;;;;;;;23.60;4.70;;;;;;;-144.73;95.06;54452.84;6217357;23;20019;-71
2023/04/03 04:07:23;;;;;;;22.57;4.80;;;;;;;-144.73;94.71;54473.38;6221841;23;19996;-71
2023/04/03 04:09:49;;;;;;;20.17;5.20;;;;;;;-144.73;94.50;54481.59;6192547;23;20012;-71
2023/04/03 04:12:14;;;;;;;19.37;5.30;;;;;;;-144.73;94.59;54485.69;6196455;23;20044;-71
2023/04/03 04:14:39;;;;;;;19.30;4.33;;;;;;;-144.73;94.89;54473.38;6219505;23;20110;-71
2023/04/03 04:17:05;;;;;;;20.50;5.30;;;;;;;-144.73;94.58;54506.22;6196283;23;20040;-71
2023/04/03 04:19:31;;;;;;;20.30;5.30;;;;;;;-144.73;94.61;54485.69;6193524;23;20036;-71
2023/04/03 04:21:56;;;;;;;17.50;5.23;;;;;;;-144.73;94.68;54481.59;6195899;23;20015;-71
2023/04/03 04:24:22;;;;;;;22.13;5.17;;;;;;;-144.73;95.14;54479.53;6193989;23;20019;-71
2023/04/03 04:26:48;;;;;;;16.83;4.50;;;;;;;-144.73;95.46;54477.47;6196360;23;20005;-71
2023/04/03 04:29:13;;;;;;;18.30;6.47;;;;;;;-144.73;95.22;54473.38;6219854;23;20004;-71
2023/04/03 04:31:39;;;;;;;14.80;4.53;;;;;;;-144.73;95.27;54539.06;6196666;23;20000;-71
2023/04/03 04:34:04;;;;;;;16.57;4.73;;;;;;;-144.73;95.77;54481.59;6196364;23;20055;-71
2023/04/03 04:36:30;;;;;;;20.23;4.70;;;;;;;-144.73;96.24;54516.47;6211426;23;20083;-71
2023/04/03 04:38:55;;;;;;;23.93;4.90;;;;;;;-144.73;96.23;54485.69;6222021;23;20372;-72
2023/04/03 04:41:22;;;;;;;15.13;4.57;;;;;;;-144.73;95.50;54463.13;6186097;23;20020;-71
2023/04/03 04:43:51;;;;;;;15.70;4.60;;;;;;;-144.73;95.75;54473.38;6222490;23;20007;-71
2023/04/03 04:46:17;;;;;;;14.70;4.87;;;;;;;-144.73;95.74;54485.69;6213071;23;20017;-72
2023/04/03 04:48:43;;;;;;;19.90;5.23;;;;;;;-144.73;95.82;54506.22;6221898;23;20004;-71
2023/04/03 04:51:09;;;;;;;23.53;5.07;;;;;;;-144.73;95.44;54506.22;6186872;23;20026;-72
2023/04/03 04:53:35;;;;;;;25.53;4.87;;;;;;;-144.73;95.34;54498.00;6195596;23;19996;-71
2023/04/03 04:56:01;;;;;;;20.60;5.37;;;;;;;-144.73;95.51;54456.97;6187152;23;20020;-72
2023/04/03 04:58:26;;;;;;;13.20;3.87;;;;;;;-144.73;95.42;54477.47;6195317;23;20003;-71
2023/04/03 05:01:02;;;;;;;22.00;4.60;;;;;;;-144.73;96.06;54465.16;6188160;23;20017;-71
2023/04/03 05:03:27;;;;;;;13.90;4.70;;;;;;;-144.73;95.80;54473.38;6222879;23;20000;-71
2023/04/03 05:05:53;;;;;;;18.13;5.27;;;;;;;-144.73;96.02;54469.28;6187837;23;20016;-71
2023/04/03 05:08:18;;;;;;;10.87;4.23;;;;;;;-144.73;96.71;54473.38;6195779;23;20039;-72
2023/04/03 05:10:46;;;;;;;21.63;4.40;;;;;;;-144.73;96.63;54465.16;6215046;23;20043;-73
2023/04/03 05:13:11;;;;;;;18.50;5.10;;;;;;;-144.73;96.37;54487.75;6196757;23;20000;-73
2023/04/03 05:15:37;;;;;;;17.50;4.17;;;;;;;-144.73;96.15;54469.28;6189033;23;20078;-72
2023/04/03 05:18:02;;;;;;;27.57;5.87;;;;;;;-144.73;96.47;54489.81;6195344;23;20003;-72
2023/04/03 05:20:28;;;;;;;13.00;4.27;;;;;;;-144.73;96.61;54493.91;6190315;23;20039;-72
2023/04/03 05:22:53;;;;;;;17.57;4.27;;;;;;;-144.73;96.98;54510.31;6195838;23;20000;-72
2023/04/03 05:25:18;;;;;;;23.67;4.50;;;;;;;-144.73;96.83;54456.97;6189898;23;20017;-72
2023/04/03 05:27:44;;;;;;;16.60;4.40;;;;;;;-144.73;96.91;54481.59;6195372;23;20075;-72
2023/04/03 05:30:10;;;;;;;19.33;4.37;;;;;;;-144.73;96.95;54452.84;6216823;23;20028;-73
2023/04/03 05:32:35;;;;;;;17.90;4.87;;;;;;;-144.73;96.49;54444.66;6220876;23;20001;-72
2023/04/03 05:35:00;;;;;;;20.83;5.53;;;;;;;-144.73;96.45;54500.06;6191448;23;20012;-72
2023/04/03 05:37:26;;;;;;;22.53;5.23;;;;;;;-144.73;97.34;54477.47;6221547;23;20000;-72
2023/04/03 05:39:52;;;;;;;22.50;4.60;;;;;;;-144.73;97.32;54498.00;6216973;23;20013;-72
2023/04/03 05:42:17;;;;;;;15.23;4.20;;;;;;;-144.73;97.40;54444.66;6222188;23;20004;-72
2023/04/03 05:44:44;;;;;;;17.73;4.57;;;;;;;-144.73;97.17;54465.16;6217457;23;20020;-72
2023/04/03 05:47:09;;;;;;;22.10;5.30;;;;;;;-144.73;97.72;54493.91;6220537;23;20005;-72
2023/04/03 05:49:35;;;;;;;14.30;4.53;;;;;;;-144.73;97.61;54489.81;6219203;23;20013;-73
2023/04/03 05:52:01;;;;;;;22.63;4.90;;;;;;;-144.73;97.57;54489.81;6195791;23;20031;-72
2023/04/03 05:54:29;;;;;;;21.70;3.87;;;;;;;-144.73;97.99;54461.06;6219091;23;20107;-73
2023/04/03 05:56:54;;;;;;;19.73;5.00;;;;;;;-144.73;97.64;54500.06;6222544;23;20012;-72
2023/04/03 05:59:20;;;;;;;24.73;4.53;;;;;;;-144.73;97.29;54465.16;6194098;23;19997;-72
2023/04/03 06:01:47;;;;;;;22.00;4.93;;;;;;;-144.73;96.71;54469.28;6195190;23;20072;-73
2023/04/03 06:04:13;;;;;;;13.40;3.87;;;;;;;-144.73;96.60;54485.69;6220918;23;20004;-73
2023/04/03 06:06:53;;;;;;;17.53;4.33;;;;;;;-144.73;95.67;54473.38;6221675;23;20020;-73
2023/04/03 06:09:21;;;;;;;22.17;4.87;;;;;;;-144.73;96.02;54508.28;6193033;23;20005;-71
2023/04/03 06:11:46;;;;;;;15.73;4.17;;;;;;;-144.73;95.45;54477.47;6220803;23;20075;-72
2023/04/03 06:14:12;;;;;;;21.33;5.20;;;;;;;-144.73;95.30;54506.22;6194348;23;20424;-71
2023/04/03 06:16:38;;;;;;;19.83;4.87;;;;;;;-144.73;95.67;54498.00;6195007;23;20008;-72
2023/04/03 06:19:05;;;;;;;16.20;4.43;;;;;;;-144.73;95.23;54452.84;6194805;23;20016;-72
2023/04/03 06:21:31;;;;;;;14.00;4.00;;;;;;;-144.73;94.35;54506.22;6210839;23;20028;-72
2023/04/03 06:23:56;;;;;;;15.30;4.03;;;;;;;-144.73;94.07;54518.53;6220520;23;20698;-73
2023/04/03 06:26:22;;;;;;;17.13;3.73;;;;;;;-144.73;94.23;54489.81;6211969;23;20019;-72
2023/04/03 06:28:47;;;;;;;19.87;4.47;;;;;;;-144.73;93.18;54498.00;6220207;23;20004;-73
2023/04/03 06:31:13;;;;;;;13.13;3.83;;;;;;;-144.73;92.88;54493.91;6186898;23;20080;-73
2023/04/03 06:33:38;;;;;;;10.17;3.53;;;;;;;-144.73;92.97;54461.06;6195842;23;20327;-72
2023/04/03 06:36:05;;;;;;;12.60;3.57;;;;;;;-144.73;92.31;54510.31;6187609;23;20472;-71
2023/04/03 06:38:31;;;;;;;14.48;4.00;;;;;;;-144.73;91.00;54539.06;6195204;23;20063;-71
2023/04/03 06:40:56;;;;;;;15.37;4.53;;;;;;;-144.73;90.87;54506.22;6212992;23;20012;-71
2023/04/03 06:43:22;;;;;;;12.17;3.53;;;;;;;-144.73;90.40;54473.38;6223578;23;20083;-71
2023/04/03 06:45:47;;;;;;;22.93;4.30;;;;;;;-144.73;89.90;54452.84;6216887;23;20031;-72
2023/04/03 06:48:13;;;;;;;13.90;4.23;;;;;;;-144.73;89.34;54473.38;6223216;23;20028;-72
2023/04/03 06:50:38;;;;;;;18.45;3.92;;;;;;;-144.73;89.05;54506.22;6190361;23;20357;-71
2023/04/03 06:53:04;;;;;;;17.73;3.75;;;;;;;-144.73;88.54;54506.22;6211117;23;20416;-70
2023/04/03 06:55:30;;;;;;;15.53;3.47;;;;;;;-144.73;88.06;54456.97;6203089;23;20067;-70
2023/04/03 06:57:55;;;;;;;8.35;2.55;;;;;;;-144.73;87.59;54559.59;6211935;23;19997;-71
2023/04/03 07:00:21;;;;;;;12.48;2.95;;;;;;;-144.73;86.94;54502.13;6212340;23;20055;-71
2023/04/03 07:02:46;;;;;;;15.32;2.65;;;;;;;-144.73;87.11;54512.38;6190043;23;20008;-72
2023/04/03 07:05:13;;;;;;;13.07;3.10;;;;;;;-144.73;86.64;54506.22;6212561;23;20076;-71
2023/04/03 07:07:38;;;;;;;18.83;4.03;;;;;;;-144.73;86.15;54539.06;6214103;23;20005;-72
2023/04/03 07:10:07;;;;;;;11.40;2.28;;;;;;;-144.73;86.03;54452.84;6184541;23;20089;-71
2023/04/03 07:12:33;;;;;;;14.75;2.78;;;;;;;-144.73;85.80;54512.38;6217528;23;20000;-71
2023/04/03 07:14:59;;;;;;;11.57;2.25;;;;;;;-144.73;84.92;54498.00;6185336;23;20024;-71
2023/04/03 07:17:25;;;;;;;11.02;2.78;;;;;;;-144.73;84.13;54489.81;6216190;23;20445;-71
2023/04/03 07:19:50;;;;;;;8.27;2.53;;;;;;;-144.73;84.01;54498.00;6212852;23;20066;-72
2023/04/03 07:22:16;;;;;;;13.40;2.05;;;;;;;-144.73;83.79;54498.00;6215646;23;20013;-71
2023/04/03 07:24:41;;;;;;;14.35;2.55;;;;;;;-144.73;83.57;54491.84;6187928;23;20012;-71
2023/04/03 07:27:08;;;;;;;13.57;2.80;;;;;;;-144.73;83.51;54485.69;6215093;23;20032;-71
2023/04/03 07:29:35;;;;;;;9.90;2.38;;;;;;;-144.73;83.03;54498.00;6214745;23;20008;-71
2023/04/03 07:32:00;;;;;;;9.90;2.33;;;;;;;-144.73;82.55;54514.44;6215241;23;20429;-71
2023/04/03 07:34:26;;;;;;;12.70;2.92;;;;;;;-144.73;82.17;54489.81;6188577;23;20001;-71
2023/04/03 07:36:52;;;;;;;12.38;2.55;;;;;;;-144.73;81.79;54452.84;6190445;23;20012;-72
2023/04/03 07:39:17;;;;;;;9.02;2.78;;;;;;;-144.73;80.41;54493.91;6213852;23;20007;-72
2023/04/03 07:41:42;;;;;;;7.28;2.13;;;;;;;-144.73;78.21;54502.13;6216697;23;20000;-72
2023/04/03 07:44:09;;;;;;;12.65;2.38;;;;;;;-144.73;77.30;54481.59;6188144;23;20028;-71
2023/04/03 07:46:35;;;;;;;18.20;2.80;;;;;;;-144.73;76.21;54495.97;6216898;23;20079;-72
2023/04/03 07:49:01;;;;;;;11.40;2.30;;;;;;;-144.73;76.52;54452.84;6214314;23;20008;-72
2023/04/03 07:51:28;;;;;;;16.10;3.60;;;;;;;-144.73;73.57;54481.59;6180107;23;20093;-71
2023/04/03 07:53:53;;;;;;;8.63;1.92;;;;;;;-144.73;71.76;54514.44;6191053;23;20008;-72
2023/04/03 07:56:20;;;;;;;8.48;1.70;;;;;;;-144.73;70.34;54481.59;6206689;23;20020;-71
2023/04/03 07:58:46;;;;;;;4.97;1.55;;;;;;;-144.73;69.73;54498.00;6216770;23;19992;-73
2023/04/03 08:01:11;;;;;;;7.88;1.70;;;;;;;-144.73;69.28;54444.66;6204567;23;20407;-72
2023/04/03 08:03:37;;;;;;;10.13;1.75;;;;;;;-144.73;68.49;54452.84;6190294;23;20365;-71
2023/04/03 08:06:06;;;;;;;7.40;2.03;;;;;;;-144.73;67.95;54424.13;6209622;23;20016;-72
2023/04/03 08:08:32;;;;;;;8.88;1.52;;;;;;;-144.73;66.68;54473.38;6188659;23;20082;-72
2023/04/03 08:11:00;;;;;;;7.63;1.90;;;;;;;-144.73;65.67;54461.06;6208057;23;20081;-71
2023/04/03 08:13:25;;;;;;;8.52;1.73;;;;;;;-144.73;65.34;54485.69;6217058;23;20094;-72
2023/04/03 08:15:51;;;;;;;9.93;1.90;;;;;;;-144.73;65.63;54502.13;6180494;23;20016;-72
2023/04/03 08:18:21;;;;;;;5.50;1.58;;;;;;;-144.73;64.09;54465.16;6215649;23;20055;-71
2023/04/03 08:20:46;;;;;;;7.53;1.80;;;;;;;-144.73;64.46;54473.38;6181091;23;20013;-72
2023/04/03 08:23:12;;;;;;;10.27;2.05;;;;;;;-144.73;64.07;54420.00;6213639;23;20036;-72
2023/04/03 08:25:41;;;;;;;7.22;2.00;;;;;;;-144.73;65.24;54461.06;6182654;23;20129;-72
2023/04/03 08:28:07;;;;;;;12.27;2.55;;;;;;;-144.73;64.36;54448.75;6215583;23;20441;-72
2023/04/03 08:30:33;;;;;;;9.20;2.20;;;;;;;-144.73;63.03;54442.59;6209842;23;20012;-72
2023/04/03 08:33:01;;;;;;;15.93;2.05;;;;;;;-144.73;62.89;54409.75;6188446;23;20019;-71
2023/04/03 08:35:27;;;;;;;5.70;1.80;;;;;;;-144.73;61.94;54448.75;6208009;23;20013;-71
2023/04/03 08:37:52;;;;;;;10.93;1.88;;;;;;;-144.73;61.21;54456.97;6189971;23;19996;-72
2023/04/03 08:40:17;;;;;;;9.50;2.05;;;;;;;-144.73;59.60;54432.31;6180255;23;20016;-72
2023/04/03 08:42:43;;;;;;;7.68;2.10;;;;;;;-144.73;57.57;54444.66;6211767;23;20023;-72
2023/04/03 08:45:22;;;;;;;8.40;2.35;;;;;;;-144.73;57.72;54440.53;6183582;23;20020;-72
2023/04/03 08:48:26;;;;;;;5.05;1.52;;;;;;;-144.73;56.21;54399.50;6188574;23;20004;-71
2023/04/03 08:50:55;;;;;;;6.57;1.88;;;;;;;-144.73;57.29;54485.69;6118572;23;20025;-71
2023/04/03 08:53:26;;;;;;;6.82;2.00;;;;;;;-144.73;57.34;54461.06;6179982;23;20004;-72
2023/04/03 08:55:53;;;;;;;5.90;1.33;;;;;;;-144.73;55.53;54473.38;6207939;23;20386;-71
2023/04/03 08:58:21;;;;;;;4.18;1.50;;;;;;;-144.73;53.86;54452.84;6186027;23;20485;-72
2023/04/03 09:01:05;;;;;;;4.45;1.40;;;;;;;-144.73;54.01;54436.44;6183000;23;20044;-72
2023/04/03 09:03:36;;;;;;;11.23;1.80;;;;;;;-144.73;52.92;54452.84;6214508;23;20050;-71
2023/04/03 09:06:20;;;;;;;5.65;1.90;;;;;;;-144.73;52.42;54469.28;6180843;23;20462;-71
2023/04/03 09:09:08;;;;;;;8.15;2.17;;;;;;;-144.73;51.64;54428.22;6214507;23;20024;-72
2023/04/03 09:11:40;;;;;;;4.03;1.63;;;;;;;-144.73;50.57;54461.06;6206944;23;20073;-68
2023/04/03 09:14:27;;;;;;;4.40;1.50;;;;;;;-144.73;49.16;54444.66;6191492;23;20329;-68
2023/04/03 09:17:00;;;;;;;6.28;1.63;;;;;;;-144.73;48.15;54473.38;6179531;23;20095;-68
2023/04/03 09:19:32;;;;;;;3.25;1.75;;;;;;;-144.73;48.29;54438.50;6189107;23;20004;-68
2023/04/03 09:22:13;;;;;;;;;;;;;;;-144.73;47.80;54465.16;6218688;23;20472;-69
2023/04/03 09:24:40;;;;;;;6.13;1.60;;;;;;;-144.73;47.96;54452.84;6223365;23;19933;-69
2023/04/03 09:27:09;;;;;;;6.30;1.80;;;;;;;-144.73;47.86;54452.84;6203347;23;20004;-69
2023/04/03 09:29:40;;;;;;;7.63;1.75;;;;;;;-144.73;46.80;54444.66;6199212;23;20028;-69
2023/04/03 09:32:30;;;;;;;2.30;1.00;;;;;;;-144.73;46.19;54407.69;6202927;23;20001;-69
2023/04/03 09:35:10;;;;;;;3.42;1.58;;;;;;;-144.73;45.11;54465.16;6197861;23;20040;-68
2023/04/03 09:37:42;;;;;;;8.93;1.20;;;;;;;-144.73;43.85;54465.16;6202249;23;20000;-68
2023/04/03 09:40:28;;;;;;;;;;;;;;;-144.73;43.47;54461.06;6224566;23;20032;-70
2023/04/03 09:42:56;;;;;;;10.23;1.65;;;;;;;-144.73;42.03;54461.06;6192036;23;19927;-71
2023/04/03 09:45:33;;;;;;;6.60;2.47;;;;;;;-144.73;42.28;54459.00;6197926;23;20027;-68
2023/04/03 09:48:13;;;;;;;8.35;2.40;;;;;;;-144.73;42.41;54440.53;6204940;23;20005;-70
2023/04/03 09:50:58;;;;;;;8.25;0.98;;;;;;;-144.73;41.94;54456.97;6195792;23;20454;-70
2023/04/03 09:53:32;;;;;;;4.47;1.10;;;;;;;-144.73;41.39;54473.38;6226985;23;20143;-67
2023/04/03 09:55:58;;;;;;;7.68;1.30;;;;;;;-144.73;40.16;54420.00;6195101;23;20071;-69
2023/04/03 09:58:35;;;;;;;6.97;1.65;;;;;;;-144.73;41.10;54420.00;6203909;23;19997;-69
2023/04/03 10:01:02;;;;;;;4.15;2.08;;;;;;;-144.73;40.11;54452.84;6193922;23;20023;-69
2023/04/03 10:03:36;;;;;;;8.15;1.35;;;;;;;-144.73;40.08;54428.22;6204792;23;20000;-69
2023/04/03 10:06:22;;;;;;;9.70;1.13;;;;;;;-144.73;40.70;54452.84;6195341;23;20017;-69
2023/04/03 10:09:00;;;;;;;8.73;1.45;;;;;;;-144.73;39.96;54411.81;6204081;23;20008;-70
2023/04/03 10:11:27;;;;;;;4.97;1.17;;;;;;;-144.73;40.32;54411.81;6194519;23;20058;-68
2023/04/03 10:13:54;;;;;;;9.30;1.70;;;;;;;-144.73;39.66;54430.28;6203595;23;19996;-69
2023/04/03 10:16:43;;;;;;;8.13;1.42;;;;;;;-144.73;38.02;54448.75;6193104;23;20365;-70
2023/04/03 10:19:19;;;;;;;4.57;1.20;;;;;;;-144.73;37.63;54395.38;6204122;23;20008;-69
2023/04/03 10:22:08;;;;;;;3.38;1.30;;;;;;;-144.73;37.69;54422.06;6230824;23;20091;-68
2023/04/03 10:25:00;;;;;;;3.40;1.08;;;;;;;-144.73;37.87;54452.84;6227677;23;20039;-70
2023/04/03 10:27:44;;;;;;;8.32;1.60;;;;;;;-144.73;38.59;54442.59;6228518;23;20008;-69
2023/04/03 10:30:31;;;;;;;9.40;1.40;;;;;;;-144.73;37.92;54428.22;6198612;23;20016;-69
2023/04/03 10:33:19;;;;;;;4.85;1.23;;;;;;;-144.73;38.73;54440.53;6201875;23;20005;-69
2023/04/03 10:36:09;;;;;;;8.15;1.98;;;;;;;-144.73;39.23;54440.53;6198073;23;20021;-69
2023/04/03 10:38:40;;;;;;;3.97;1.25;;;;;;;-144.73;40.33;54473.38;6204154;23;20019;-68
2023/04/03 10:41:20;;;;;;;3.75;1.48;;;;;;;-144.73;40.62;54383.06;6196597;23;20040;-69
2023/04/03 10:43:55;;;;;;;7.75;1.60;;;;;;;-144.73;40.07;54430.28;6204577;23;20022;-69
2023/04/03 10:46:33;;;;;;;3.88;1.40;;;;;;;-144.73;41.15;54473.38;6196843;23;20120;-69
2023/04/03 10:49:31;;;;;;;4.95;1.40;;;;;;;-144.73;40.65;54448.75;6206506;23;20012;-68
2023/04/03 10:52:09;;;;;;;5.13;1.42;;;;;;;-144.73;41.76;54440.53;6195251;23;20016;-69
2023/04/03 10:54:45;;;;;;;3.47;1.40;;;;;;;-144.73;43.29;54448.75;6201669;23;20349;-68
2023/04/03 10:57:11;;;;;;;4.40;1.10;;;;;;;-144.73;42.82;54434.38;6202329;23;20001;-69
2023/04/03 10:59:51;;;;;;;4.45;1.40;;;;;;;-144.73;41.61;54395.38;6200623;23;20017;-69
2023/04/03 11:02:22;;;;;;;5.03;1.58;;;;;;;-144.73;41.39;54452.84;6203357;23;20000;-69
2023/04/03 11:04:57;;;;;;;7.28;1.70;;;;;;;-144.73;41.30;54440.53;6226023;23;20067;-69
2023/04/03 11:07:46;;;;;;;4.47;1.20;;;;;;;-144.73;42.65;54407.69;6203075;23;19996;-69
2023/04/03 11:10:35;;;;;;;3.78;1.50;;;;;;;-144.73;42.79;54415.91;6198593;23;20068;-69
2023/04/03 11:13:13;;;;;;;9.25;1.35;;;;;;;-144.73;43.29;54485.69;6204051;23;20019;-69
2023/04/03 11:15:38;;;;;;;8.95;1.85;;;;;;;-144.73;43.75;54434.38;6222881;23;20051;-70
2023/04/03 11:18:12;;;;;;;8.05;1.88;;;;;;;-144.73;43.05;54444.66;6206247;23;19997;-69